Observations
| Time | Sensor | AQI | SAQ | Temp °C | Hum % | Pres Pa | CO μg/m³ | H₂S μg/m³ | NO μg/m³ | NO₂ μg/m³ | O₃ μg/m³ | SO₂ μg/m³ | CO₂e PPM | VOC PPM | PM1 μg/m³ | PM2.5 μg/m³ | PM4 μg/m³ | PM10 μg/m³ | TPS µm |
|---|---|---|---|---|---|---|---|---|---|---|---|---|---|---|---|---|---|---|---|
| Thursday 13 August 2026 | |||||||||||||||||||
| 08:51 | Trim Market St | 2 | 27.7 | 58 | 57,685 | 0.1 | 0 | 1.07 | 13.09 | 16.43 | 0 | 2.14 | 4.63 | 6.13 | |||||
| 08:51 | Trim Patrick St | 1 | 26.9 | 60 | 78,899 | 0.02 | 0 | 1.24 | 11.45 | 17.76 | 8.61 | 4.57 | 9.49 | 10.44 | |||||
| 08:50 | Trim Market St | 2 | 27.5 | 58 | 57,670 | 0.1 | 0 | 1.15 | 12.8 | 20.68 | 0 | 1.43 | 3.61 | 6.14 | |||||
| 08:50 | Trim Patrick St | 1 | 26.8 | 61 | 79,760 | 0 | 0 | 1.3 | 12.21 | 25.85 | 8.82 | 4.57 | 8.71 | 9.58 | |||||
| 08:49 | Trim Patrick St | 1 | 26.7 | 61 | 80,622 | 0 | 0 | 1.29 | 11.34 | 19.22 | 8.47 | 4.57 | 8.7 | 9.57 | |||||
| 08:48 | Trim Market St | 2 | 27.3 | 59 | 57,631 | 0.11 | 0 | 1.07 | 13.87 | 15.14 | 0 | 1.43 | 4.58 | 7.53 | |||||
| 08:48 | Trim Patrick St | 1 | 26.5 | 61 | 81,567 | 0 | 0 | 1.35 | 12.67 | 25.5 | 8.03 | 4.57 | 7.93 | 8.72 | |||||
| 08:47 | Trim Patrick St | 1 | 26.4 | 62 | 82,701 | 0 | 0 | 1.41 | 12.14 | 21.65 | 8.29 | 4.57 | 9.38 | 10.31 | |||||
| 08:46 | Trim Patrick St | 1 | 26.3 | 61 | 84,048 | 0 | 0 | 1.43 | 12.39 | 25.17 | 8.27 | 4.57 | 8.65 | 9.52 | |||||
| 08:45 | Trim Patrick St | 1 | 26.1 | 62 | 85,424 | 0 | 0 | 1.35 | 12.2 | 17.5 | 7.79 | 4.57 | 9.37 | 10.31 | |||||
| 08:44 | Trim Patrick St | 1 | 26 | 62 | 86,977 | 0 | 0 | 1.37 | 8.62 | 20.88 | 7.89 | 5.43 | 9.35 | 10.29 | |||||
| 08:43 | Trim Patrick St | 1 | 26 | 62 | 88,503 | 0 | 0 | 1.42 | 11.81 | 26.16 | 7.49 | 4.57 | 8.59 | 9.45 | |||||
| 08:42 | Trim Patrick St | 1 | 25.8 | 62 | 90,538 | 0 | 0 | 1.42 | 11.6 | 18.73 | 7.39 | 4.57 | 9.33 | 10.26 | |||||
| 08:40 | Trim Patrick St | 1 | 25.6 | 63 | 94,763 | 0 | 0 | 1.41 | 11.54 | 15.66 | 7.24 | 6.29 | 10.03 | 11.03 | |||||
| 08:39 | Trim Patrick St | 1 | 25.5 | 63 | 97,656 | 0 | 0 | 1.49 | 10.39 | 28.34 | 7.38 | 5.43 | 9.99 | 10.98 | |||||
| 08:38 | Trim Patrick St | 1 | 25.4 | 63 | 100,384 | 0.02 | 0 | 1.43 | 9.46 | 24.84 | 7.13 | 5.43 | 9.99 | 10.98 | |||||
| 08:37 | Trim Patrick St | 1 | 25.3 | 64 | 103,444 | 0 | 0 | 1.41 | 9.63 | 22.61 | 7.18 | 5.43 | 9.22 | 10.14 | |||||
| 08:37 | Trim Market St | 2 | 26 | 62 | 57,395 | 0.05 | 0 | 0.99 | 13.27 | 33.34 | 0 | 1.43 | 3.95 | 6.18 | |||||
| 08:36 | Trim Market St | 2 | 25.9 | 62 | 57,377 | 0.06 | 0 | 0.97 | 12.94 | 26.34 | 0 | 1.43 | 3.45 | 4.82 | |||||
| 08:35 | Trim Market St | 2 | 25.8 | 62 | 57,357 | 0.04 | 0 | 0.97 | 11.3 | 35.46 | 0 | 2.14 | 4.43 | 7.53 | |||||